Terminal Aerodrome Forecast
Issued by NWS Louisville, KY

Home | Current Version | Previous Version | Text Only | Print | Product List | Glossary On
Versions: 1 2 3 4 5 6 7 8 9 10 11 12 13 14 15 16 17 18 19 20
656
FTUS43 KLMK 221745
TAFSDF
TAF
KSDF 221745Z 2218/2324 06005KT P6SM OVC015
     FM230500 VRB03KT 4SM -SHRA OVC008
     FM231000 19007KT 3SM -SHRA OVC008 WS020/22040KT
     FM231400 22010KT 5SM -SHRA OVC012
     FM232200 27005KT P6SM -SHRA BKN025=

USA.gov is the U.S. government's official web portal to all federal, state and local government web resources and services.